createdAt,value
2019-04-23T00:01:23.311Z,6.25
2019-04-23T00:03:47.258Z,5.65
2019-04-23T00:06:18.655Z,7.30
2019-04-23T00:08:49.046Z,5.70
2019-04-23T00:11:22.162Z,7.08
2019-04-23T00:13:54.161Z,6.10
2019-04-23T00:16:21.804Z,8.13
2019-04-23T00:18:46.427Z,5.95
2019-04-23T00:21:23.557Z,5.80
2019-04-23T00:23:54.226Z,5.90
2019-04-23T00:26:24.078Z,6.72
2019-04-23T00:29:00.442Z,5.65
2019-04-23T00:31:38.894Z,6.20
2019-04-23T00:33:51.190Z,6.17
2019-04-23T00:36:25.990Z,7.72
2019-04-23T00:39:03.815Z,6.22
2019-04-23T00:41:18.079Z,9.63
2019-04-23T00:43:54.710Z,6.15
2019-04-23T00:46:22.392Z,7.22
2019-04-23T00:51:18.565Z,6.30
2019-04-23T00:53:54.702Z,6.00
2019-04-23T00:58:57.358Z,6.35
2019-04-23T01:01:27.470Z,6.10
2019-04-23T01:03:54.793Z,6.45
2019-04-23T01:08:53.210Z,5.72
2019-04-23T01:11:32.403Z,6.03
2019-04-23T01:16:24.213Z,7.47
2019-04-23T01:21:11.734Z,7.75
2019-04-23T01:24:03.671Z,7.55
2019-04-23T01:27:01.687Z,6.55
2019-04-23T01:29:28.273Z,5.80
2019-04-23T01:31:57.337Z,5.33
2019-04-23T01:34:31.290Z,5.72
2019-04-23T01:36:56.390Z,6.12
2019-04-23T01:39:23.108Z,5.55
2019-04-23T01:42:05.198Z,6.28
2019-04-23T01:44:32.765Z,5.53
2019-04-23T01:46:54.652Z,5.10
2019-04-23T01:49:30.631Z,6.80
2019-04-23T01:52:00.305Z,7.00
2019-04-23T01:54:34.994Z,5.78
2019-04-23T01:56:56.242Z,6.78
2019-04-23T01:59:31.643Z,5.50
2019-04-23T02:01:58.808Z,6.58
2019-04-23T02:04:28.589Z,6.67
2019-04-23T02:07:00.872Z,4.92
2019-04-23T02:09:40.218Z,5.25
2019-04-23T02:11:57.981Z,7.05
2019-04-23T02:14:37.879Z,5.53
2019-04-23T02:17:00.186Z,4.70
2019-04-23T02:22:03.647Z,6.17
2019-04-23T02:24:43.025Z,4.50
2019-04-23T02:27:13.312Z,4.50
2019-04-23T02:32:19.041Z,3.92
2019-04-23T02:34:51.231Z,6.87
2019-04-23T02:37:22.657Z,6.87
2019-04-23T02:40:08.945Z,4.50
2019-04-23T02:44:46.986Z,7.78
2019-04-23T02:47:31.897Z,6.33
2019-04-23T02:52:21.752Z,4.97
2019-04-23T02:57:20.458Z,4.62
2019-04-23T03:07:26.945Z,5.08
2019-04-23T03:12:27.221Z,6.97
2019-04-23T03:14:56.070Z,5.10
2019-04-23T03:17:25.978Z,7.00
2019-04-23T03:20:12.306Z,9.00
2019-04-23T03:22:46.218Z,4.87
2019-04-23T03:25:26.243Z,4.95
2019-04-23T03:30:52.717Z,5.13
2019-04-23T03:36:17.104Z,5.80
2019-04-23T03:40:19.561Z,7.83
2019-04-23T03:43:06.586Z,4.83
2019-04-23T03:50:37.979Z,9.18
2019-04-23T03:52:57.773Z,9.85
2019-04-23T03:58:04.649Z,8.53
2019-04-23T04:03:12.758Z,7.17
2019-04-23T04:05:41.388Z,5.92
2019-04-23T04:08:13.858Z,6.27
2019-04-23T04:10:24.313Z,9.05
2019-04-23T04:13:07.216Z,5.37
2019-04-23T04:20:49.328Z,6.28
2019-04-23T04:23:19.216Z,5.15
2019-04-23T04:25:41.293Z,7.13
2019-04-23T04:28:17.807Z,4.65
2019-04-23T04:30:37.402Z,5.97
2019-04-23T04:33:19.676Z,4.75
2019-04-23T04:35:50.153Z,4.80
2019-04-23T04:38:17.365Z,6.35
2019-04-23T04:40:55.285Z,4.97
2019-04-23T04:43:13.239Z,5.72
2019-04-23T04:48:01.269Z,9.30
2019-04-23T04:50:50.665Z,4.83
2019-04-23T04:53:22.151Z,4.85
2019-04-23T04:55:47.519Z,4.78
2019-04-23T04:58:12.992Z,6.20
2019-04-23T05:00:59.606Z,5.15
2019-04-23T05:08:19.569Z,4.92
2019-04-23T05:10:51.603Z,5.10
2019-04-23T05:15:46.760Z,5.10
2019-04-23T05:18:23.900Z,5.67
2019-04-23T05:20:53.481Z,5.05
2019-04-23T05:23:29.894Z,6.25
2019-04-23T05:25:50.014Z,5.17
2019-04-23T05:28:21.880Z,7.12
2019-04-23T05:30:51.544Z,6.30
2019-04-23T05:33:22.390Z,9.23
2019-04-23T05:40:53.659Z,7.25
2019-04-23T05:43:18.837Z,8.68
2019-04-23T05:45:56.881Z,7.60
2019-04-23T05:50:59.087Z,7.60
2019-04-23T05:55:55.262Z,6.05
2019-04-23T05:58:33.312Z,9.03
2019-04-23T06:03:32.910Z,8.55
2019-04-23T06:11:02.263Z,9.48
2019-04-23T06:13:26.354Z,7.30
2019-04-23T06:15:57.778Z,10.85
2019-04-23T06:18:37.152Z,7.70
2019-04-23T06:23:46.450Z,10.63
2019-04-23T06:26:08.493Z,8.10
2019-04-23T06:28:27.082Z,9.10
2019-04-23T06:31:02.708Z,8.48
2019-04-23T06:33:27.690Z,14.18
2019-04-23T06:35:57.202Z,10.15
2019-04-23T06:41:00.838Z,8.83
2019-04-23T06:43:49.975Z,7.33
2019-04-23T06:46:12.021Z,10.08
2019-04-23T06:48:47.236Z,10.53
2019-04-23T06:51:21.732Z,6.10
2019-04-23T06:53:43.715Z,15.23
2019-04-23T06:56:20.622Z,11.90
2019-04-23T06:58:43.179Z,6.53
2019-04-23T07:01:17.894Z,9.63
2019-04-23T07:03:52.261Z,7.58
2019-04-23T07:06:27.009Z,9.33
2019-04-23T07:11:28.775Z,4.37
2019-04-23T07:13:53.166Z,7.85
2019-04-23T07:16:17.943Z,8.88
2019-04-23T07:18:48.934Z,10.63
2019-04-23T07:21:22.428Z,9.03
2019-04-23T07:24:00.380Z,8.48
2019-04-23T07:31:35.406Z,12.65
2019-04-23T07:36:23.893Z,9.50
2019-04-23T07:39:01.179Z,6.50
2019-04-23T07:47:11.279Z,8.08
2019-04-23T07:49:32.336Z,7.92
2019-04-23T07:52:03.679Z,10.20
2019-04-23T07:54:30.972Z,9.85
2019-04-23T07:57:08.717Z,5.90
2019-04-23T07:59:37.156Z,10.90
2019-04-23T08:02:06.104Z,8.85
2019-04-23T08:04:35.174Z,11.05
2019-04-23T08:07:00.436Z,8.28
2019-04-23T08:09:43.664Z,7.55
2019-04-23T08:12:13.818Z,12.82
2019-04-23T08:14:45.054Z,6.15
2019-04-23T08:17:05.468Z,6.92
2019-04-23T08:19:41.005Z,9.53
2019-04-23T08:22:12.506Z,13.95
2019-04-23T08:25:01.193Z,8.23
2019-04-23T08:27:28.188Z,10.05
2019-04-23T08:30:00.606Z,13.90
2019-04-23T08:32:21.355Z,13.75
2019-04-23T08:35:04.370Z,13.38
2019-04-23T08:40:04.275Z,10.85
2019-04-23T08:42:46.831Z,7.67
2019-04-23T08:48:09.511Z,7.97
2019-04-23T08:53:18.338Z,8.45
2019-04-23T08:55:38.866Z,8.03
2019-04-23T08:58:06.164Z,9.53
2019-04-23T09:00:37.242Z,7.87
2019-04-23T09:03:11.243Z,11.12
2019-04-23T09:10:41.204Z,11.60
2019-04-23T09:13:35.069Z,9.23
2019-04-23T09:15:45.433Z,10.10
2019-04-23T09:23:13.668Z,7.50
2019-04-23T09:28:20.423Z,7.10
2019-04-23T09:30:49.670Z,10.50
2019-04-23T09:33:33.970Z,10.20
2019-04-23T09:35:59.764Z,8.40
2019-04-23T09:38:44.684Z,8.28
2019-04-23T09:41:22.213Z,9.75
2019-04-23T09:43:53.959Z,10.28
2019-04-23T09:46:24.329Z,8.23
2019-04-23T09:48:59.745Z,10.78
2019-04-23T09:51:23.566Z,7.53
2019-04-23T09:53:52.992Z,14.07
2019-04-23T09:56:22.393Z,5.42
2019-04-23T09:59:06.731Z,9.00
2019-04-23T10:01:25.950Z,8.60
2019-04-23T10:03:50.981Z,7.30
2019-04-23T10:06:16.145Z,6.55
2019-04-23T10:08:44.412Z,16.93
2019-04-23T10:11:09.435Z,6.92
2019-04-23T10:13:38.568Z,7.10
2019-04-23T10:16:11.282Z,10.28
2019-04-23T10:18:39.018Z,11.12
2019-04-23T10:21:07.920Z,8.65
2019-04-23T10:23:37.058Z,7.80
2019-04-23T10:26:06.304Z,8.48
2019-04-23T10:28:38.035Z,15.43
2019-04-23T10:31:07.121Z,11.65
2019-04-23T10:33:35.625Z,10.98
2019-04-23T10:36:09.450Z,11.45
2019-04-23T10:38:36.263Z,12.35
2019-04-23T10:41:06.278Z,12.58
2019-04-23T10:43:39.192Z,12.43
2019-04-23T10:46:28.342Z,11.08
2019-04-23T10:49:31.617Z,18.27
2019-04-23T10:51:51.613Z,9.95
2019-04-23T10:54:29.148Z,12.28
2019-04-23T11:02:29.638Z,11.90
2019-04-23T11:07:26.389Z,12.07
2019-04-23T11:12:31.941Z,13.18
2019-04-23T11:15:00.816Z,18.25
2019-04-23T11:22:39.275Z,10.93
2019-04-23T11:24:59.823Z,14.78
2019-04-23T11:27:22.577Z,10.00
2019-04-23T11:30:03.817Z,12.10
2019-04-23T11:32:40.689Z,10.35
2019-04-23T11:37:38.795Z,9.75
2019-04-23T11:40:01.641Z,15.38
2019-04-23T11:44:56.397Z,11.95
2019-04-23T11:47:45.564Z,12.85
2019-04-23T11:49:53.259Z,9.88
2019-04-23T11:52:32.159Z,10.43
2019-04-23T11:55:08.850Z,12.05
2019-04-23T11:59:53.406Z,8.63
2019-04-23T12:02:35.151Z,11.40
2019-04-23T12:05:20.568Z,10.85
2019-04-23T12:07:39.846Z,24.67
2019-04-23T12:10:36.642Z,18.35
2019-04-23T12:12:44.737Z,13.70
2019-04-23T12:15:28.554Z,16.00
2019-04-23T12:17:55.390Z,12.65
2019-04-23T12:20:30.468Z,11.45
2019-04-23T12:25:26.069Z,10.28
2019-04-23T12:27:42.098Z,9.65
2019-04-23T12:30:42.102Z,10.32
2019-04-23T12:38:03.334Z,10.93
2019-04-23T12:40:25.049Z,15.95
2019-04-23T12:43:02.707Z,9.25
2019-04-23T12:50:46.856Z,10.25
2019-04-23T12:55:40.561Z,7.08
2019-04-23T12:57:50.619Z,5.40
2019-04-23T13:00:35.736Z,5.78
2019-04-23T13:03:09.766Z,6.75
2019-04-23T13:05:26.742Z,10.60
2019-04-23T13:10:40.010Z,11.48
2019-04-23T13:15:30.858Z,10.98
2019-04-23T13:18:04.642Z,4.70
2019-04-23T13:20:28.046Z,7.70
2019-04-23T13:23:01.280Z,4.37
2019-04-23T13:25:36.765Z,8.35
2019-04-23T13:30:47.254Z,4.83
2019-04-23T13:33:26.660Z,6.78
2019-04-23T13:38:15.991Z,5.85
2019-04-23T13:43:13.383Z,9.63
2019-04-23T13:53:21.001Z,7.90
2019-04-23T13:55:42.055Z,5.80
2019-04-23T13:58:15.024Z,12.53
2019-04-23T14:00:54.126Z,10.70
2019-04-23T14:03:23.306Z,13.75
2019-04-23T14:06:04.909Z,13.28
2019-04-23T14:08:37.840Z,12.07
2019-04-23T14:16:04.540Z,13.32
2019-04-23T14:18:53.898Z,5.10
2019-04-23T14:21:05.988Z,9.85
2019-04-23T14:23:55.846Z,9.33
2019-04-23T14:26:25.506Z,3.40
2019-04-23T14:28:40.477Z,7.72
2019-04-23T14:31:04.754Z,9.00
2019-04-23T14:38:40.465Z,11.38
2019-04-23T14:41:21.397Z,6.40
2019-04-23T14:43:46.768Z,8.83
2019-04-23T14:48:46.258Z,10.90
2019-04-23T14:51:16.711Z,6.35
2019-04-23T14:53:39.545Z,8.23
2019-04-23T14:56:16.211Z,6.62
2019-04-23T15:08:50.213Z,5.22
2019-04-23T15:13:44.553Z,4.03
2019-04-23T15:16:16.730Z,6.85
2019-04-23T15:19:06.766Z,7.25
2019-04-23T15:28:30.380Z,6.20
2019-04-23T15:42:34.852Z,5.58
2019-04-23T15:50:10.519Z,8.18
2019-04-23T15:52:48.314Z,8.30
2019-04-23T15:57:54.602Z,4.53
2019-04-23T16:00:05.724Z,6.67
2019-04-23T16:02:08.207Z,5.95
2019-04-23T16:04:37.901Z,7.67
2019-04-23T16:07:08.467Z,7.03
2019-04-23T16:10:09.521Z,9.25
2019-04-23T16:12:33.564Z,11.40
2019-04-23T16:17:35.802Z,6.83
2019-04-23T16:22:36.826Z,6.83
2019-04-23T16:27:36.554Z,6.30
2019-04-23T16:35:51.118Z,5.00
2019-04-23T16:38:14.150Z,6.15
2019-04-23T16:40:33.186Z,3.87
2019-04-23T16:43:03.733Z,7.15
2019-04-23T16:45:31.656Z,3.92
2019-04-23T16:48:08.989Z,5.78
2019-04-23T16:50:31.037Z,5.10
2019-04-23T16:53:02.859Z,6.62
2019-04-23T16:55:34.506Z,9.48
2019-04-23T16:58:01.498Z,5.78
2019-04-23T17:00:30.824Z,3.98
2019-04-23T17:03:07.923Z,5.70
2019-04-23T17:05:34.709Z,7.58
2019-04-23T17:08:24.835Z,5.20
2019-04-23T17:10:39.577Z,8.83
2019-04-23T17:13:07.175Z,3.77
2019-04-23T17:15:33.258Z,4.33
2019-04-23T17:18:07.295Z,7.35
2019-04-23T17:23:19.304Z,6.35
2019-04-23T17:25:32.507Z,10.28
2019-04-23T17:28:12.682Z,4.83
2019-04-23T17:30:41.844Z,9.68
2019-04-23T17:33:16.768Z,5.10
2019-04-23T17:38:26.421Z,8.13
2019-04-23T17:41:00.051Z,6.00
2019-04-23T17:43:33.155Z,6.42
2019-04-23T17:45:54.180Z,8.70
2019-04-23T17:48:27.212Z,5.87
2019-04-23T17:53:33.365Z,6.12
2019-04-23T17:56:16.666Z,3.47
2019-04-23T17:58:37.290Z,5.72
2019-04-23T18:01:17.033Z,5.40
2019-04-23T18:06:21.632Z,2.95
2019-04-23T18:08:43.729Z,3.50
2019-04-23T18:13:43.842Z,6.92
2019-04-23T18:18:44.663Z,3.85
2019-04-23T18:21:26.616Z,4.17
2019-04-23T18:24:13.562Z,5.15
2019-04-23T18:26:45.956Z,3.30
2019-04-23T18:29:25.733Z,3.15
2019-04-23T18:32:09.497Z,5.58
2019-04-23T18:34:56.805Z,6.37
2019-04-23T18:37:12.102Z,3.20
2019-04-23T18:39:42.107Z,4.67
2019-04-23T18:47:07.571Z,3.00
2019-04-23T18:49:41.010Z,4.50
2019-04-23T18:52:20.880Z,3.72
2019-04-23T18:54:35.103Z,4.03
2019-04-23T18:59:46.416Z,8.50
2019-04-23T19:02:31.756Z,3.77
2019-04-23T19:07:50.180Z,6.37
2019-04-23T19:13:02.988Z,4.22
2019-04-23T19:15:37.342Z,2.90
2019-04-23T19:20:47.962Z,3.87
2019-04-23T19:23:20.410Z,4.45
2019-04-23T19:25:27.733Z,4.17
2019-04-23T19:28:08.934Z,3.58
2019-04-23T19:33:16.350Z,5.25
2019-04-23T19:38:13.618Z,4.10
2019-04-23T19:40:46.036Z,2.77
2019-04-23T19:43:11.525Z,2.83
2019-04-23T19:45:53.101Z,3.10
2019-04-23T19:48:16.040Z,3.22
2019-04-23T19:50:48.777Z,7.83
2019-04-23T19:53:25.891Z,5.55
2019-04-23T19:55:57.043Z,4.70
2019-04-23T19:58:25.952Z,6.42
2019-04-23T20:01:05.414Z,6.80
2019-04-23T20:03:26.015Z,4.95
2019-04-23T20:05:57.317Z,4.62
2019-04-23T20:08:25.578Z,3.37
2019-04-23T20:10:47.659Z,2.60
2019-04-23T20:13:19.704Z,2.60
2019-04-23T20:16:05.582Z,3.42
2019-04-23T20:18:29.159Z,7.75
2019-04-23T20:20:49.446Z,4.40
2019-04-23T20:23:28.366Z,2.58
2019-04-23T20:26:12.154Z,2.83
2019-04-23T20:29:02.516Z,2.50
2019-04-23T20:32:06.121Z,2.77
2019-04-23T20:34:34.443Z,7.03
2019-04-23T20:36:21.739Z,4.30
2019-04-23T20:38:57.532Z,2.98
2019-04-23T20:43:54.664Z,4.15
2019-04-23T20:46:33.837Z,3.30
2019-04-23T20:51:15.895Z,3.58
2019-04-23T20:53:48.622Z,2.50
2019-04-23T20:59:40.869Z,7.10
2019-04-23T21:02:42.166Z,6.35
2019-04-23T21:05:03.541Z,5.97
2019-04-23T21:10:09.203Z,3.55
2019-04-23T21:12:45.859Z,3.37
2019-04-23T21:15:05.596Z,2.30
2019-04-23T21:17:35.600Z,3.92
2019-04-23T21:20:08.540Z,3.40
2019-04-23T21:24:51.726Z,4.60
2019-04-23T21:27:55.312Z,2.98
2019-04-23T21:30:03.475Z,3.08
2019-04-23T21:32:40.988Z,5.78
2019-04-23T21:35:07.682Z,2.40
2019-04-23T21:43:08.915Z,4.35
2019-04-23T21:45:40.744Z,3.92
2019-04-23T21:48:10.253Z,2.25
2019-04-23T21:50:44.281Z,2.90
2019-04-23T21:53:06.842Z,2.22
2019-04-23T21:55:47.231Z,4.33
2019-04-23T21:58:19.702Z,2.40
2019-04-23T22:00:44.440Z,3.15
2019-04-23T22:03:15.353Z,2.65
2019-04-23T22:05:45.856Z,3.17
2019-04-23T22:10:45.612Z,2.95
2019-04-23T22:13:19.921Z,4.25
2019-04-23T22:16:00.402Z,2.83
2019-04-23T22:18:07.009Z,3.65
2019-04-23T22:20:43.575Z,3.08
2019-04-23T22:23:13.867Z,2.50
2019-04-23T22:25:51.628Z,2.55
2019-04-23T22:28:10.378Z,2.40
2019-04-23T22:30:52.655Z,2.60
2019-04-23T22:33:25.004Z,3.20
2019-04-23T22:35:49.905Z,3.10
2019-04-23T22:38:13.045Z,2.20
2019-04-23T22:40:41.635Z,2.60
2019-04-23T22:45:55.942Z,2.25
2019-04-23T22:48:14.991Z,2.00
2019-04-23T22:50:56.750Z,2.90
2019-04-23T22:53:25.498Z,3.47
2019-04-23T22:55:57.444Z,4.03
2019-04-23T22:58:31.513Z,2.33
2019-04-23T23:01:07.335Z,5.72
2019-04-23T23:03:27.152Z,2.10
2019-04-23T23:08:34.666Z,2.00
2019-04-23T23:10:59.825Z,5.53
2019-04-23T23:13:35.758Z,3.22
2019-04-23T23:16:01.538Z,1.90
2019-04-23T23:18:23.657Z,2.15
2019-04-23T23:21:04.275Z,2.00
2019-04-23T23:23:36.552Z,2.42
2019-04-23T23:28:37.934Z,2.67
2019-04-23T23:33:36.222Z,2.20
2019-04-23T23:38:48.330Z,2.40
2019-04-23T23:43:33.750Z,4.78
2019-04-23T23:46:17.293Z,2.22
2019-04-23T23:51:13.870Z,2.20
2019-04-23T23:53:41.849Z,2.42
2019-04-23T23:58:41.081Z,2.42
